Time;durP1;ratioP1;P1;durP2;ratioP2;P2;SDS_P1;SDS_P2;PMS_P1;PMS_P2;Temp;Humidity;BMP_temperature;BMP_pressure;BME280_temperature;BME280_humidity;BME280_pressure;Samples;Min_cycle;Max_cycle;Signal;HPM_P1;HPM_P2
2022/09/10 00:02:10;;;;;;;;;;;;;;;13.99;100.00;100905.13;5327186;27;19923;-79
2022/09/10 00:04:41;;;;;;;;;;;;;;;13.98;100.00;100898.91;5323139;28;19938;-80
2022/09/10 00:07:13;;;;;;;;;;;;;;;14.02;100.00;100904.78;5328761;27;20022;-79
2022/09/10 00:09:44;;;;;;;;;;;;;;;14.05;100.00;100898.28;5327225;27;20342;-80
2022/09/10 00:12:15;;;;;;;;;;;;;;;14.08;100.00;100903.31;5324375;27;19919;-79
2022/09/10 00:14:46;;;;;;;;;;;;;;;14.06;100.00;100894.56;5327253;27;19920;-79
2022/09/10 00:17:17;;;;;;;;;;;;;;;14.04;100.00;100893.91;5328255;27;19970;-79
2022/09/10 00:19:49;;;;;;;;;;;;;;;13.95;100.00;100888.50;5326734;27;20038;-80
2022/09/10 00:22:21;;;;;;;;;;;;;;;13.94;100.00;100888.69;5326891;27;20355;-79
2022/09/10 00:24:58;;;;;;;;;;;;;;;13.90;100.00;100890.00;5327339;27;19916;-80
2022/09/10 00:27:29;;;;;;;;;;;;;;;13.90;100.00;100890.88;5323223;27;20326;-79
2022/09/10 00:30:02;;;;;;;;;;;;;;;13.92;100.00;100885.31;5326954;27;19946;-80
2022/09/10 00:32:33;;;;;;;;;;;;;;;13.93;100.00;100895.06;5326703;27;19912;-80
2022/09/10 00:35:05;;;;;;;;;;;;;;;13.93;100.00;100895.06;5327805;27;19947;-79
2022/09/10 00:37:37;;;;;;;;;;;;;;;13.94;100.00;100899.44;5331757;27;20012;-80
2022/09/10 00:40:09;;;;;;;;;;;;;;;13.92;100.00;100888.00;5354584;27;20070;-80
2022/09/10 00:42:42;;;;;;;;;;;;;;;13.91;100.00;100895.22;5326656;27;19920;-79
2022/09/10 00:45:32;;;;;;;;;;;;;;;13.93;100.00;100898.56;5325509;27;19923;-80
2022/09/10 00:48:14;;;;;;;;;;;;;;;13.94;100.00;100894.06;5326101;28;20396;-79
2022/09/10 00:50:47;;;;;;;;;;;;;;;13.89;100.00;100891.84;5326530;27;19916;-80
2022/09/10 00:53:21;;;;;;;;;;;;;;;13.90;100.00;100887.31;5327595;27;19950;-79
2022/09/10 00:55:54;;;;;;;;;;;;;;;13.90;100.00;100888.19;5324328;27;19927;-80
2022/09/10 00:58:26;;;;;;;;;;;;;;;13.93;100.00;100885.16;5327162;27;19962;-79
2022/09/10 01:01:00;;;;;;;;;;;;;;;13.96;100.00;100884.00;5324418;27;19916;-79
2022/09/10 01:03:31;;;;;;;;;;;;;;;13.98;100.00;100898.91;5325171;27;20363;-79
2022/09/10 01:06:02;;;;;;;;;;;;;;;14.04;100.00;100901.94;5323454;27;20003;-79
2022/09/10 01:08:34;;;;;;;;;;;;;;;14.09;100.00;100902.28;5327394;27;19985;-80
2022/09/10 01:11:26;;;;;;;;;;;;;;;14.12;100.00;100902.81;5321133;27;19955;-80
2022/09/10 01:14:06;;;;;;;;;;;;;;;14.22;100.00;100907.19;5323696;27;19925;-80
2022/09/10 01:16:40;;;;;;;;;;;;;;;14.24;100.00;100907.88;5323279;27;19924;-80
2022/09/10 01:19:44;;;;;;;;;;;;;;;14.30;100.00;100908.03;5325313;27;19920;-80
2022/09/10 01:22:31;;;;;;;;;;;;;;;14.29;100.00;100908.22;5302463;27;19924;-80
2022/09/10 01:25:08;;;;;;;;;;;;;;;14.24;100.00;100903.34;5315593;27;19955;-80
2022/09/10 01:27:51;;;;;;;;;;;;;;;14.27;100.00;100902.16;5327471;27;19927;-80
2022/09/10 01:30:39;;;;;;;;;;;;;;;14.24;100.00;100897.97;5325524;27;19978;-80
2022/09/10 01:33:22;;;;;;;;;;;;;;;14.21;100.00;100908.19;5328957;27;19962;-80
2022/09/10 01:35:56;;;;;;;;;;;;;;;14.22;100.00;100907.19;5326211;27;20239;-79
2022/09/10 01:38:37;;;;;;;;;;;;;;;14.20;100.00;100907.38;5327436;27;19921;-80
2022/09/10 01:41:09;;;;;;;;;;;;;;;14.19;100.00;100901.16;5325823;27;19927;-80
2022/09/10 01:43:40;;;;;;;;;;;;;;;14.22;100.00;100905.34;5327163;27;19920;-80
2022/09/10 01:46:12;;;;;;;;;;;;;;;14.21;100.00;100903.66;5332479;27;19916;-81
2022/09/10 01:48:43;;;;;;;;;;;;;;;14.25;100.00;100901.50;5325499;27;19990;-80
2022/09/10 01:51:23;;;;;;;;;;;;;;;14.24;100.00;100903.34;5323958;27;19982;-80
2022/09/10 01:54:13;;;;;;;;;;;;;;;14.25;100.00;100898.81;5326465;27;19965;-80
2022/09/10 01:56:44;;;;;;;;;;;;;;;14.27;100.00;100897.66;5323153;27;19946;-80
2022/09/10 01:59:34;;;;;;;;;;;;;;;14.26;100.00;100897.81;5326029;27;19916;-80
2022/09/10 02:02:08;;;;;;;;;;;;;;;14.26;100.00;100895.97;5323238;27;20386;-80
2022/09/10 02:04:41;;;;;;;;;;;;;;;14.26;100.00;100895.97;5326098;27;19920;-80
2022/09/10 02:07:13;;;;;;;;;;;;;;;14.29;100.00;100901.00;5323632;27;20024;-81
2022/09/10 02:09:44;;;;;;;;;;;;;;;14.28;100.00;100896.63;5326184;27;20280;-81
2022/09/10 02:12:17;;;;;;;;;;;;;;;14.32;100.00;100906.06;5323961;27;19932;-81
2022/09/10 02:14:50;;;;;;;;;;;;;;;14.34;100.00;100889.75;5327781;27;19966;-81
2022/09/10 02:17:23;;;;;;;;;;;;;;;14.34;100.00;100893.31;5324580;27;19946;-81
2022/09/10 02:19:55;;;;;;;;;;;;;;;14.37;100.00;100892.13;5326705;28;20033;-81
2022/09/10 02:22:28;;;;;;;;;;;;;;;14.38;100.00;100888.44;5324563;27;20011;-81
2022/09/10 02:24:59;;;;;;;;;;;;;;;14.40;100.00;100888.28;5326373;27;19927;-81
2022/09/10 02:27:31;;;;;;;;;;;;;;;14.40;100.00;100885.59;5324293;27;19920;-81
2022/09/10 02:30:04;;;;;;;;;;;;;;;14.40;100.00;100885.59;5325960;27;19912;-81
2022/09/10 02:32:35;;;;;;;;;;;;;;;14.40;100.00;100882.91;5325743;27;19917;-81
2022/09/10 02:35:06;;;;;;;;;;;;;;;14.40;100.00;100881.06;5356816;27;20295;-81
2022/09/10 02:37:37;;;;;;;;;;;;;;;14.37;100.00;100889.44;5324083;27;19978;-81
2022/09/10 02:40:10;;;;;;;;;;;;;;;14.38;100.00;100885.75;5323894;27;19919;-82
2022/09/10 02:42:45;;;;;;;;;;;;;;;14.38;100.00;100888.44;5324624;27;20025;-82
2022/09/10 02:45:16;;;;;;;;;;;;;;;14.39;100.00;100882.06;5324841;27;19916;-82
2022/09/10 02:47:47;;;;;;;;;;;;;;;14.38;100.00;100875.84;5325274;27;19924;-81
2022/09/10 02:50:19;;;;;;;;;;;;;;;14.37;100.00;100878.69;5324789;27;19927;-81
2022/09/10 02:52:50;;;;;;;;;;;;;;;14.38;100.00;100883.91;5331793;27;19931;-81
2022/09/10 02:55:21;;;;;;;;;;;;;;;14.38;100.00;100891.97;5326052;27;19916;-81
2022/09/10 02:57:53;;;;;;;;;;;;;;;14.42;100.00;100884.41;5324112;27;20296;-81
2022/09/10 03:00:24;;;;;;;;;;;;;;;14.45;100.00;100876.03;5323941;27;19963;-81
2022/09/10 03:02:55;;;;;;;;;;;;;;;14.44;100.00;100879.72;5323969;27;19920;-80
2022/09/10 03:05:26;;;;;;;;;;;;;;;14.48;100.00;100886.44;5321670;27;19924;-81
2022/09/10 03:07:59;;;;;;;;;;;;;;;14.49;100.00;100889.97;5324351;27;19916;-81
2022/09/10 03:10:30;;;;;;;;;;;;;;;14.48;100.00;100882.91;5323764;27;19920;-81
2022/09/10 03:13:01;;;;;;;;;;;;;;;14.49;100.00;100890.78;5306928;27;19931;-81
2022/09/10 03:15:33;;;;;;;;;;;;;;;14.49;100.00;100888.09;5326825;27;20299;-81
2022/09/10 03:18:04;;;;;;;;;;;;;;;14.52;100.00;100889.63;5317076;27;19928;-81
2022/09/10 03:20:35;;;;;;;;;;;;;;;14.52;100.00;100887.78;5312596;27;19927;-81
2022/09/10 03:23:07;;;;;;;;;;;;;;;14.53;100.00;100888.59;5323817;27;19920;-81
2022/09/10 03:25:39;;;;;;;;;;;;;;;14.54;100.00;100876.88;5327679;27;20343;-81
2022/09/10 03:28:11;;;;;;;;;;;;;;;14.54;100.00;100885.75;5322038;27;19916;-81
2022/09/10 03:30:42;;;;;;;;;;;;;;;14.53;100.00;100877.88;5322221;27;20261;-81
2022/09/10 03:33:13;;;;;;;;;;;;;;;14.56;100.00;100886.44;5324303;27;20386;-81
2022/09/10 03:35:45;;;;;;;;;;;;;;;14.56;100.00;100877.53;5325304;27;20350;-81
2022/09/10 03:38:17;;;;;;;;;;;;;;;14.56;100.00;100880.22;5318933;28;19928;-81
2022/09/10 03:40:49;;;;;;;;;;;;;;;14.56;100.00;100878.38;5316663;27;19917;-82
2022/09/10 03:43:21;;;;;;;;;;;;;;;14.57;100.00;100877.38;5324234;27;19930;-82
2022/09/10 03:45:52;;;;;;;;;;;;;;;14.58;100.00;100880.91;5325150;27;19943;-82
2022/09/10 03:48:23;;;;;;;;;;;;;;;14.58;100.00;100875.56;5306650;27;19963;-82
2022/09/10 03:50:55;;;;;;;;;;;;;;;14.60;100.00;100878.91;5324591;27;19942;-82
2022/09/10 03:53:26;;;;;;;;;;;;;;;14.59;100.00;100873.72;5312231;27;19955;-82
2022/09/10 03:55:57;;;;;;;;;;;;;;;14.57;100.00;100874.69;5323490;27;19916;-81
2022/09/10 03:58:28;;;;;;;;;;;;;;;14.57;100.00;100873.88;5324489;28;20129;-81
2022/09/10 04:01:00;;;;;;;;;;;;;;;14.57;100.00;100872.00;5323711;27;19923;-82
2022/09/10 04:03:31;;;;;;;;;;;;;;;14.57;100.00;100868.50;5324177;27;19979;-81
2022/09/10 04:06:03;;;;;;;;;;;;;;;14.57;100.00;100876.53;5306318;27;19924;-81
2022/09/10 04:08:34;;;;;;;;;;;;;;;14.58;100.00;100872.88;5323264;27;19919;-81
2022/09/10 04:11:05;;;;;;;;;;;;;;;14.56;100.00;100862.28;5321956;27;19927;-81
2022/09/10 04:13:36;;;;;;;;;;;;;;;14.54;100.00;100866.97;5326363;27;19969;-83
2022/09/10 04:16:08;;;;;;;;;;;;;;;14.53;100.00;100870.69;5326870;27;19916;-83
2022/09/10 04:18:39;;;;;;;;;;;;;;;14.57;100.00;100863.13;5327932;27;19931;-83
2022/09/10 04:21:11;;;;;;;;;;;;;;;14.60;100.00;100867.34;5323908;27;20253;-83
2022/09/10 04:23:42;;;;;;;;;;;;;;;14.57;100.00;100876.53;5327983;27;19916;-83
2022/09/10 04:26:16;;;;;;;;;;;;;;;14.57;100.00;100874.69;5328445;27;19962;-83
2022/09/10 04:28:47;;;;;;;;;;;;;;;14.57;100.00;100865.81;5328259;27;20011;-82
2022/09/10 04:31:18;;;;;;;;;;;;;;;14.59;100.00;100865.69;5326543;27;19920;-83
2022/09/10 04:33:49;;;;;;;;;;;;;;;14.61;100.00;100855.59;5328069;27;19920;-83
2022/09/10 04:36:21;;;;;;;;;;;;;;;14.59;100.00;100849.56;5327958;27;19997;-83
2022/09/10 04:38:52;;;;;;;;;;;;;;;14.59;100.00;100863.00;5334655;27;19960;-81
2022/09/10 04:41:23;;;;;;;;;;;;;;;14.55;100.00;100865.97;5324429;27;19919;-81
2022/09/10 04:43:54;;;;;;;;;;;;;;;14.54;100.00;100863.47;5326875;27;19925;-81
2022/09/10 04:46:25;;;;;;;;;;;;;;;14.57;100.00;100863.13;5341506;27;19923;-81
2022/09/10 04:48:57;;;;;;;;;;;;;;;14.54;100.00;100875.03;5336445;27;20368;-81
2022/09/10 04:51:28;;;;;;;;;;;;;;;14.53;100.00;100876.06;5326526;27;19920;-81
2022/09/10 04:54:00;;;;;;;;;;;;;;;14.57;100.00;100865.81;5329166;27;19916;-81
2022/09/10 04:56:31;;;;;;;;;;;;;;;14.62;100.00;100876.06;5327213;27;19916;-81
2022/09/10 04:59:03;;;;;;;;;;;;;;;14.62;100.00;100879.59;5326554;27;20376;-81
2022/09/10 05:01:34;;;;;;;;;;;;;;;14.64;100.00;100879.41;5327739;27;19931;-82
2022/09/10 05:04:05;;;;;;;;;;;;;;;14.66;100.00;100880.94;5336533;27;20002;-81
2022/09/10 05:06:36;;;;;;;;;;;;;;;14.65;100.00;100871.19;5321059;27;19920;-81
2022/09/10 05:09:08;;;;;;;;;;;;;;;14.66;100.00;100877.41;5324711;27;20291;-81
2022/09/10 05:11:39;;;;;;;;;;;;;;;14.66;100.00;100882.78;5327146;27;19920;-81
2022/09/10 05:14:10;;;;;;;;;;;;;;;14.69;100.00;100877.06;5325755;27;19950;-81
2022/09/10 05:16:42;;;;;;;;;;;;;;;14.69;100.00;100877.91;5327872;27;19912;-81
2022/09/10 05:19:16;;;;;;;;;;;;;;;14.71;100.00;100875.91;5316211;27;20585;-81
2022/09/10 05:21:47;;;;;;;;;;;;;;;14.74;100.00;100874.72;5346491;27;19938;-81
2022/09/10 05:24:19;;;;;;;;;;;;;;;14.76;100.00;100878.06;5326261;27;19920;-81
2022/09/10 05:26:50;;;;;;;;;;;;;;;14.75;100.00;100877.22;5327458;27;19912;-81
2022/09/10 05:29:21;;;;;;;;;;;;;;;14.74;100.00;100870.19;5326412;27;19998;-81
2022/09/10 05:31:52;;;;;;;;;;;;;;;14.76;100.00;100878.06;5326488;27;19927;-81
2022/09/10 05:34:24;;;;;;;;;;;;;;;14.79;100.00;100876.91;5327224;27;19922;-81
2022/09/10 05:36:55;;;;;;;;;;;;;;;14.76;100.00;100878.06;5325383;27;19997;-81
2022/09/10 05:39:26;;;;;;;;;;;;;;;14.78;100.00;100881.44;5326377;27;19923;-81
2022/09/10 05:41:59;;;;;;;;;;;;;;;14.78;100.00;100878.75;5334690;27;19928;-81
2022/09/10 05:44:30;;;;;;;;;;;;;;;14.83;100.00;100886.28;5326446;27;20332;-81
2022/09/10 05:47:01;;;;;;;;;;;;;;;14.86;100.00;100876.03;5327169;27;19912;-81
2022/09/10 05:49:33;;;;;;;;;;;;;;;14.88;100.00;100875.88;5326965;27;19912;-81
2022/09/10 05:52:04;;;;;;;;;;;;;;;14.92;100.00;100880.75;5327145;27;20394;-81
2022/09/10 05:54:35;;;;;;;;;;;;;;;14.92;100.00;100883.44;5325200;27;19983;-81
2022/09/10 05:57:06;;;;;;;;;;;;;;;14.90;100.00;100889.97;5325525;27;20426;-81
2022/09/10 05:59:38;;;;;;;;;;;;;;;14.88;100.00;100879.41;5327213;27;19935;-81
2022/09/10 06:02:14;;;;;;;;;;;;;;;14.89;100.00;100878.38;5326080;27;20019;-81
2022/09/10 06:04:45;;;;;;;;;;;;;;;14.91;100.00;100880.91;5325814;27;19944;-81
2022/09/10 06:07:17;;;;;;;;;;;;;;;14.91;100.00;100884.44;5328690;27;20312;-81
2022/09/10 06:09:48;;;;;;;;;;;;;;;14.93;100.00;100886.94;5329451;27;19916;-81
2022/09/10 06:12:19;;;;;;;;;;;;;;;14.92;100.00;100888.81;5324846;27;19920;-81
2022/09/10 06:14:51;;;;;;;;;;;;;;;14.91;100.00;100887.13;5324983;27;19924;-81
2022/09/10 06:17:22;;;;;;;;;;;;;;;14.92;100.00;100883.44;5325317;27;20963;-81
2022/09/10 06:19:53;;;;;;;;;;;;;;;14.92;100.00;100887.97;5328008;27;19927;-82
2022/09/10 06:22:25;;;;;;;;;;;;;;;14.93;100.00;100892.31;5325528;27;19920;-81
2022/09/10 06:24:56;;;;;;;;;;;;;;;14.88;100.00;100889.31;5324542;27;19951;-81
2022/09/10 06:27:27;;;;;;;;;;;;;;;14.89;100.00;100883.75;5324508;27;19950;-81
2022/09/10 06:29:58;;;;;;;;;;;;;;;14.88;100.00;100892.84;5325601;27;19920;-81
2022/09/10 06:32:30;;;;;;;;;;;;;;;14.89;100.00;100893.69;5321572;27;19916;-81
2022/09/10 06:35:01;;;;;;;;;;;;;;;14.92;100.00;100899.53;5325068;27;19916;-81
2022/09/10 06:37:33;;;;;;;;;;;;;;;14.90;100.00;100904.25;5324144;27;19927;-81
2022/09/10 06:40:04;;;;;;;;;;;;;;;14.91;100.00;100910.44;5324659;27;19919;-81
2022/09/10 06:42:35;;;;;;;;;;;;;;;14.92;100.00;100899.53;5324942;27;20367;-82
2022/09/10 06:45:07;;;;;;;;;;;;;;;14.92;100.00;100907.59;5324804;27;19916;-82
2022/09/10 06:47:38;;;;;;;;;;;;;;;14.92;100.00;100896.84;5325724;27;19912;-82
2022/09/10 06:50:09;;;;;;;;;;;;;;;14.92;100.00;100904.09;5315761;27;19955;-81
2022/09/10 06:52:41;;;;;;;;;;;;;;;15.00;100.00;100905.91;5323181;27;20435;-82
2022/09/10 06:55:12;;;;;;;;;;;;;;;14.99;100.00;100907.78;5325807;27;19939;-82
2022/09/10 06:57:43;;;;;;;;;;;;;;;15.02;100.00;100903.88;5311924;27;19917;-82
2022/09/10 07:00:14;;;;;;;;;;;;;;;15.01;100.00;100913.81;5323685;27;19916;-82
2022/09/10 07:02:46;;;;;;;;;;;;;;;15.04;100.00;100904.56;5325255;27;19997;-82
2022/09/10 07:05:17;;;;;;;;;;;;;;;15.08;100.00;100906.75;5325004;27;20372;-82
2022/09/10 07:07:48;;;;;;;;;;;;;;;15.10;100.00;100902.03;5324448;27;19920;-82
2022/09/10 07:10:19;;;;;;;;;;;;;;;15.16;100.00;100902.34;5325185;27;20002;-82
2022/09/10 07:12:50;;;;;;;;;;;;;;;15.16;100.00;100916.63;5324808;27;19977;-82
2022/09/10 07:15:22;;;;;;;;;;;;;;;15.16;100.00;100918.47;5323984;27;19923;-82
2022/09/10 07:17:53;;;;;;;;;;;;;;;15.09;100.00;100903.06;5324381;27;19920;-82
2022/09/10 07:20:27;;;;;;;;;;;;;;;15.13;100.00;100914.31;5317549;27;19920;-82
2022/09/10 07:22:58;;;;;;;;;;;;;;;15.12;100.00;100923.34;5320196;27;19931;-82
2022/09/10 07:25:32;;;;;;;;;;;;;;;15.10;100.00;100915.47;5316479;27;19917;-82
2022/09/10 07:28:05;;;;;;;;;;;;;;;15.08;100.00;100922.03;5319676;27;19924;-82
2022/09/10 07:30:36;;;;;;;;;;;;;;;15.09;100.00;100924.53;5320994;27;19927;-82
2022/09/10 07:33:07;;;;;;;;;;;;;;;15.09;100.00;100929.91;5321071;27;19920;-82
2022/09/10 07:35:39;;;;;;;;;;;;;;;15.11;100.00;100933.28;5317391;27;20032;-81
2022/09/10 07:38:12;;;;;;;;;;;;;;;15.21;100.00;100935.75;5316231;27;20063;-81
2022/09/10 07:40:44;;;;;;;;;;;;;;;15.36;100.00;100924.31;5320417;27;19920;-81
2022/09/10 07:43:15;;;;;;;;;;;;;;;15.49;100.00;100930.00;5325008;27;19925;-81
2022/09/10 07:45:46;;;;;;;;;;;;;;;15.54;100.00;100929.47;5319908;27;19970;-81
2022/09/10 07:48:17;;;;;;;;;;;;;;;15.60;100.00;100935.00;5343591;27;20356;-81
2022/09/10 07:50:48;;;;;;;;;;;;;;;15.63;100.00;100933.81;5326420;27;19919;-81
2022/09/10 07:53:20;;;;;;;;;;;;;;;15.74;100.00;100927.22;5327274;27;19920;-81
2022/09/10 07:55:57;;;;;;;;;;;;;;;15.79;100.00;100935.63;5327320;27;20003;-81
2022/09/10 07:58:30;;;;;;;;;;;;;;;15.78;100.00;100936.66;5324263;27;20318;-80
2022/09/10 08:01:05;;;;;;;;;;;;;;;15.78;100.00;100942.88;5323583;27;19920;-80
2022/09/10 08:03:37;;;;;;;;;;;;;;;15.79;100.00;100949.06;5323053;28;19920;-81
2022/09/10 08:06:08;;;;;;;;;;;;;;;15.88;100.00;100950.72;5320855;27;19966;-80
2022/09/10 08:08:40;;;;;;;;;;;;;;;15.95;100.00;100956.25;5322825;27;19942;-80
2022/09/10 08:11:18;;;;;;;;;;;;;;;15.96;100.00;100961.44;5319889;27;19921;-80
2022/09/10 08:13:50;;;;;;;;;;;;;;;16.05;100.00;100952.31;5325402;27;20032;-80
2022/09/10 08:16:22;;;;;;;;;;;;;;;16.19;100.00;100947.22;5327960;27;19923;-81
2022/09/10 08:18:56;;;;;;;;;;;;;;;16.12;100.00;100971.28;5325753;27;19931;-81
2022/09/10 08:21:29;;;;;;;;;;;;;;;16.03;100.00;100967.81;5316744;27;19928;-81
2022/09/10 08:24:01;;;;;;;;;;;;;;;16.06;100.00;100964.75;5322300;27;20356;-81
2022/09/10 08:26:32;;;;;;;;;;;;;;;16.10;100.00;100972.50;5326610;27;19920;-81
2022/09/10 08:29:04;;;;;;;;;;;;;;;16.06;100.00;100978.22;5342661;27;20295;-81
2022/09/10 08:31:35;;;;;;;;;;;;;;;16.19;100.00;100974.13;5330853;27;19923;-81
2022/09/10 08:34:09;;;;;;;;;;;;;;;16.19;100.00;100983.03;5327811;27;19989;-81
2022/09/10 08:36:41;;;;;;;;;;;;;;;16.28;100.00;100989.22;5326415;28;19965;-81
2022/09/10 08:39:12;;;;;;;;;;;;;;;16.39;100.00;100987.97;5330646;27;19920;-81
2022/09/10 08:41:48;;;;;;;;;;;;;;;16.55;100.00;100987.88;5326624;27;19916;-81
2022/09/10 08:44:19;;;;;;;;;;;;;;;16.53;100.00;100987.22;5329110;27;19927;-81
2022/09/10 08:46:56;;;;;;;;;;;;;;;16.52;100.00;101000.88;5324361;27;19916;-80
2022/09/10 08:49:48;;;;;;;;;;;;;;;16.54;100.00;100993.44;5322537;27;20380;-80
2022/09/10 08:52:20;;;;;;;;;;;;;;;16.45;100.00;100995.34;5325262;27;19955;-80
2022/09/10 08:54:57;;;;;;;;;;;;;;;16.36;100.00;101004.50;5344157;27;19922;-80
2022/09/10 08:57:35;;;;;;;;;;;;;;;16.39;100.00;101012.19;5316621;27;19920;-80
2022/09/10 09:00:11;;;;;;;;;;;;;;;16.31;100.00;101006.88;5315746;28;20399;-81
2022/09/10 09:02:44;;;;;;;;;;;;;;;16.26;100.00;101012.78;5324949;27;19916;-80
2022/09/10 09:05:19;;;;;;;;;;;;;;;16.24;100.00;101010.25;5328455;27;19934;-82
2022/09/10 09:07:51;;;;;;;;;;;;;;;16.11;100.00;101017.19;5311146;27;19916;-82
2022/09/10 09:10:30;;;;;;;;;;;;;;;16.02;100.00;101011.00;5306550;28;20330;-82
2022/09/10 09:13:01;;;;;;;;;;;;;;;16.04;100.00;101019.75;5317334;27;20376;-82
2022/09/10 09:15:32;;;;;;;;;;;;;;;16.01;100.00;101017.44;5323998;27;19959;-82
2022/09/10 09:18:14;;;;;;;;;;;;;;;16.07;100.00;101014.84;5323147;27;19920;-82
2022/09/10 09:20:47;;;;;;;;;;;;;;;16.06;100.00;101018.56;5322211;27;19999;-82
2022/09/10 09:23:23;;;;;;;;;;;;;;;16.20;100.00;101019.69;5321979;27;19991;-82
2022/09/10 09:25:57;;;;;;;;;;;;;;;16.35;100.00;101025.16;5322055;28;19927;-81
2022/09/10 09:28:42;;;;;;;;;;;;;;;16.41;100.00;101020.94;5331096;27;20308;-81
2022/09/10 09:31:15;;;;;;;;;;;;;;;16.75;100.00;101017.03;5322566;28;19924;-81
2022/09/10 09:33:47;;;;;;;;;;;;;;;16.62;100.00;101026.53;5319598;27;20422;-81
2022/09/10 09:36:24;;;;;;;;;;;;;;;16.63;100.00;101025.50;5323271;27;19929;-81
2022/09/10 09:38:55;;;;;;;;;;;;;;;16.81;100.00;101027.94;5321138;27;19965;-81
2022/09/10 09:41:38;;;;;;;;;;;;;;;16.92;100.00;101026.72;5330817;27;19924;-81
2022/09/10 09:44:09;;;;;;;;;;;;;;;17.13;100.00;101030.59;5321612;27;19939;-81
2022/09/10 09:46:41;;;;;;;;;;;;;;;17.27;100.00;101037.03;5322731;28;20368;-81
2022/09/10 09:49:15;;;;;;;;;;;;;;;17.12;100.00;101018.97;5320295;27;21883;-81
2022/09/10 09:51:47;;;;;;;;;;;;;;;17.01;100.00;101031.00;5319584;27;19924;-81
2022/09/10 09:54:21;;;;;;;;;;;;;;;16.95;100.00;101026.38;5321272;27;19943;-80
2022/09/10 09:56:53;;;;;;;;;;;;;;;16.91;100.00;101032.28;5316478;27;19927;-81
2022/09/10 09:59:25;;;;;;;;;;;;;;;16.82;100.00;101036.84;5321112;27;19931;-81
2022/09/10 10:02:04;;;;;;;;;;;;;;;16.82;100.00;101028.78;5319832;27;19924;-81
2022/09/10 10:04:35;;;;;;;;;;;;;;;16.83;100.00;101014.28;5326955;27;19969;-80
2022/09/10 10:07:06;;;;;;;;;;;;;;;16.89;100.00;101015.47;5326637;27;19920;-81
2022/09/10 10:09:41;;;;;;;;;;;;;;;16.98;100.00;101017.91;5325603;27;19916;-81
2022/09/10 10:12:20;;;;;;;;;;;;;;;17.07;100.00;101026.75;5323553;27;20311;-81
2022/09/10 10:14:51;;;;;;;;;;;;;;;17.09;100.00;101034.66;5324575;28;19912;-81
2022/09/10 10:17:34;;;;;;;;;;;;;;;17.11;100.00;101041.56;5323955;27;20342;-81
2022/09/10 10:20:10;;;;;;;;;;;;;;;17.43;100.00;101052.25;5315949;27;19916;-81
2022/09/10 10:22:43;;;;;;;;;;;;;;;17.85;100.00;101048.13;5325724;27;19931;-81
2022/09/10 10:25:40;;;;;;;;;;;;;;;17.96;100.00;101039.59;5323517;27;19916;-81
2022/09/10 10:28:13;;;;;;;;;;;;;;;18.20;100.00;101043.00;5316276;27;20393;-81
2022/09/10 10:30:49;;;;;;;;;;;;;;;18.35;100.00;101049.22;5327401;27;19931;-81
2022/09/10 10:33:28;;;;;;;;;;;;;;;18.33;100.00;101046.72;5321886;27;20442;-80
2022/09/10 10:36:08;;;;;;;;;;;;;;;18.35;100.00;101040.31;5323075;27;20027;-81
2022/09/10 10:39:00;;;;;;;;;;;;;;;18.26;100.00;101037.69;5324418;27;20061;-80
2022/09/10 10:41:34;;;;;;;;;;;;;;;18.21;100.00;101040.13;5314921;27;19982;-81
2022/09/10 10:44:18;;;;;;;;;;;;;;;18.10;100.00;101040.63;5319449;27;20323;-81
2022/09/10 10:47:08;;;;;;;;;;;;;;;18.07;100.00;101046.38;5329317;27;19924;-81
2022/09/10 10:49:42;;;;;;;;;;;;;;;18.09;100.00;101053.28;5326104;27;19957;-80
2022/09/10 10:52:14;;;;;;;;;;;;;;;18.14;100.00;101053.56;5324233;27;19927;-80
2022/09/10 10:55:04;;;;;;;;;;;;;;;18.12;100.00;101058.28;5325405;27;19920;-81
2022/09/10 10:57:47;;;;;;;;;;;;;;;17.89;100.00;101058.38;5322656;27;19969;-81
2022/09/10 11:00:19;;;;;;;;;;;;;;;17.66;100.00;101061.13;5307792;28;19920;-81
2022/09/10 11:03:03;;;;;;;;;;;;;;;17.58;100.00;101063.88;5321150;27;19966;-81
2022/09/10 11:05:40;;;;;;;;;;;;;;;17.46;100.00;101055.41;5322766;27;19920;-82
2022/09/10 11:08:14;;;;;;;;;;;;;;;17.46;100.00;101057.25;5320341;27;19959;-82
2022/09/10 11:10:53;;;;;;;;;;;;;;;17.26;100.00;101065.03;5321561;27;19927;-82
2022/09/10 11:13:43;;;;;;;;;;;;;;;17.15;100.00;101053.66;5326559;27;20395;-85
2022/09/10 11:16:35;;;;;;;;;;;;;;;17.07;100.00;101069.88;5324158;27;19920;-81
2022/09/10 11:19:25;;;;;;;;;;;;;;;17.10;100.00;101074.91;5321446;27;20026;-80
2022/09/10 11:22:00;;;;;;;;;;;;;;;17.07;100.00;101075.25;5328650;27;19932;-80
2022/09/10 11:24:44;;;;;;;;;;;;;;;17.07;100.00;101074.44;5322988;27;19946;-80
2022/09/10 11:27:21;;;;;;;;;;;;;;;17.05;100.00;101073.78;5326880;27;20445;-80
2022/09/10 11:30:02;;;;;;;;;;;;;;;17.03;100.00;101063.19;5321818;28;19916;-80
2022/09/10 11:32:43;;;;;;;;;;;;;;;17.10;100.00;101071.38;5320089;28;19928;-80
2022/09/10 11:35:28;;;;;;;;;;;;;;;17.06;100.00;101068.22;5322819;27;19920;-79
2022/09/10 11:38:19;;;;;;;;;;;;;;;17.01;100.00;101082.22;5322808;27;19997;-80
2022/09/10 11:41:09;;;;;;;;;;;;;;;17.01;100.00;101084.06;5321618;27;20023;-80
2022/09/10 11:43:46;;;;;;;;;;;;;;;17.09;100.00;101086.72;5323422;27;20272;-80
2022/09/10 11:46:17;;;;;;;;;;;;;;;17.16;100.00;101076.91;5326201;28;19913;-80
2022/09/10 11:48:53;;;;;;;;;;;;;;;17.10;100.00;101082.16;5331654;27;19985;-80
2022/09/10 11:51:37;;;;;;;;;;;;;;;17.11;100.00;101084.69;5331405;27;19920;-80
2022/09/10 11:54:11;;;;;;;;;;;;;;;17.06;100.00;101087.06;5324392;27;19919;-79
2022/09/10 11:57:01;;;;;;;;;;;;;;;17.22;100.00;101085.28;5320332;27;19921;-79
2022/09/10 11:59:42;;;;;;;;;;;;;;;17.25;100.00;101079.50;5316988;27;20327;-79
2022/09/10 12:02:31;;;;;;;;;;;;;;;17.25;100.00;101084.91;5325197;27;19924;-79
2022/09/10 12:05:18;;;;;;;;;;;;;;;17.40;100.00;101083.09;5321553;28;20038;-79
2022/09/10 12:07:55;;;;;;;;;;;;;;;17.59;100.00;101087.16;5323168;27;19920;-79
2022/09/10 12:10:30;;;;;;;;;;;;;;;18.04;100.00;101087.22;5320986;27;20009;-79
2022/09/10 12:13:06;;;;;;;;;;;;;;;19.27;100.00;101093.72;5318999;27;19928;-78
2022/09/10 12:15:38;;;;;;;;;;;;;;;20.26;100.00;101100.09;5325618;27;19923;-79
2022/09/10 12:18:12;;;;;;;;;;;;;;;20.51;100.00;101103.13;5325612;27;19928;-79
2022/09/10 12:20:48;;;;;;;;;;;;;;;20.54;100.00;101108.97;5328460;27;20332;-79
2022/09/10 12:23:24;;;;;;;;;;;;;;;20.57;100.00;101105.03;5328335;27;19920;-79
2022/09/10 12:25:59;;;;;;;;;;;;;;;21.00;100.00;101103.94;5321908;28;19924;-79
2022/09/10 12:28:44;;;;;;;;;;;;;;;21.28;100.00;101101.06;5321700;27;19916;-79
2022/09/10 12:31:16;;;;;;;;;;;;;;;21.39;100.00;101086.91;5322972;27;20412;-79
2022/09/10 12:33:49;;;;;;;;;;;;;;;20.89;100.00;101083.69;5323232;27;19916;-79
2022/09/10 12:36:27;;;;;;;;;;;;;;;20.42;100.00;101088.91;5321789;27;19981;-79
2022/09/10 12:39:17;;;;;;;;;;;;;;;20.34;100.00;101098.03;5334570;27;19978;-79
2022/09/10 12:41:51;;;;;;;;;;;;;;;20.10;100.00;101102.06;5323052;27;19916;-80
2022/09/10 12:44:35;;;;;;;;;;;;;;;19.54;100.00;101092.06;5324681;28;19973;-80
2022/09/10 12:47:15;;;;;;;;;;;;;;;20.98;100.00;101106.84;5323234;27;19924;-80
2022/09/10 12:49:50;;;;;;;;;;;;;;;22.65;100.00;101120.31;5322386;27;20332;-79
2022/09/10 12:52:34;;;;;;;;;;;;;;;22.62;100.00;101112.63;5322436;27;20414;-79
2022/09/10 12:55:05;;;;;;;;;;;;;;;22.40;100.00;101110.19;5321554;27;19916;-79
2022/09/10 12:57:43;;;;;;;;;;;;;;;22.39;100.00;101105.00;5320036;27;19920;-79
2022/09/10 13:00:17;;;;;;;;;;;;;;;21.78;100.00;101092.56;5314983;27;19920;-78
2022/09/10 13:02:53;;;;;;;;;;;;;;;21.16;100.00;101092.72;5322136;28;19920;-79
2022/09/10 13:05:24;;;;;;;;;;;;;;;20.46;100.00;101092.91;5318892;28;19920;-79